Time;durP1;ratioP1;P1;durP2;ratioP2;P2;SDS_P1;SDS_P2;PMS_P1;PMS_P2;Temp;Humidity;BMP_temperature;BMP_pressure;BME280_temperature;BME280_humidity;BME280_pressure;Samples;Min_cycle;Max_cycle;Signal;HPM_P1;HPM_P2
2023/10/06 00:03:05;;;;;;;;;;;14.50;95.90;;;;;;4984690;28;19918;-72
2023/10/06 00:05:32;;;;;;;;;;;14.50;96.10;;;;;;4989560;28;19909;-71
2023/10/06 00:07:58;;;;;;;;;;;14.60;96.10;;;;;;4992606;28;19914;-71
2023/10/06 00:10:27;;;;;;;;;;;14.50;96.20;;;;;;4994187;28;19928;-72
2023/10/06 00:12:54;;;;;;;;;;;14.40;96.50;;;;;;4991441;28;19910;-72
2023/10/06 00:15:26;;;;;;;;;;;14.40;96.60;;;;;;4989226;28;19944;-71
2023/10/06 00:18:07;;;;;;;;;;;14.40;96.70;;;;;;4990425;28;19917;-71
2023/10/06 00:20:39;;;;;;;;;;;14.40;96.90;;;;;;4969969;28;20059;-71
2023/10/06 00:23:06;;;;;;;;;;;14.40;97.10;;;;;;4986911;28;19914;-72
2023/10/06 00:25:35;;;;;;;;;;;14.40;97.10;;;;;;4988868;28;20007;-72
2023/10/06 00:28:03;;;;;;;;;;;14.40;97.20;;;;;;4988976;28;19909;-72
2023/10/06 00:30:28;;;;;;;;;;;14.30;97.40;;;;;;4991718;28;20269;-72
2023/10/06 00:32:55;;;;;;;;;;;14.20;97.70;;;;;;4990056;28;19917;-71
2023/10/06 00:35:30;;;;;;;;;;;14.20;97.80;;;;;;4988641;28;19914;-72
2023/10/06 00:38:04;;;;;;;;;;;14.20;98.00;;;;;;4985752;28;19984;-71
2023/10/06 00:40:29;;;;;;;;;;;14.20;98.20;;;;;;4989947;28;19925;-72
2023/10/06 00:42:56;;;;;;;;;;;14.20;98.20;;;;;;4992482;28;20257;-72
2023/10/06 00:45:24;;;;;;;;;;;14.20;98.40;;;;;;4986794;28;20887;-72
2023/10/06 00:47:53;;;;;;;;;;;14.10;98.70;;;;;;4974359;28;19920;-72
2023/10/06 00:50:22;;;;;;;;;;;14.10;98.80;;;;;;4990586;28;19924;-71
2023/10/06 00:52:48;;;;;;;;;;;14.10;99.00;;;;;;4984802;28;20481;-72
2023/10/06 00:55:14;;;;;;;;;;;14.10;99.10;;;;;;4972618;28;20163;-72
2023/10/06 00:57:40;;;;;;;;;;;14.10;99.20;;;;;;4990660;28;19925;-72
2023/10/06 01:00:20;;;;;;;;;;;14.10;99.50;;;;;;4987461;28;19953;-72
2023/10/06 01:02:46;;;;;;;;;;;14.10;99.50;;;;;;4989422;28;19918;-72
2023/10/06 01:05:15;;;;;;;;;;;14.10;99.70;;;;;;4988391;28;19916;-72
2023/10/06 01:07:41;;;;;;;;;;;14.00;99.90;;;;;;4988773;28;19910;-71
2023/10/06 01:10:07;;;;;;;;;;;14.00;99.90;;;;;;4992884;28;19932;-72
2023/10/06 01:12:33;;;;;;;;;;;14.00;99.90;;;;;;4987875;28;20213;-71
2023/10/06 01:15:17;;;;;;;;;;;13.90;99.90;;;;;;4984137;28;19920;-72
2023/10/06 01:17:46;;;;;;;;;;;13.80;99.90;;;;;;4989376;28;20379;-71
2023/10/06 01:20:17;;;;;;;;;;;13.80;99.90;;;;;;4993436;28;19922;-72
2023/10/06 01:22:44;;;;;;;;;;;13.80;99.90;;;;;;4990667;28;20305;-71
2023/10/06 01:25:13;;;;;;;;;;;13.80;99.90;;;;;;4988308;28;19956;-72
2023/10/06 01:27:39;;;;;;;;;;;13.70;99.90;;;;;;4969403;28;20048;-72
2023/10/06 01:30:22;;;;;;;;;;;13.70;99.90;;;;;;4973806;28;21022;-72
2023/10/06 01:32:51;;;;;;;;;;;13.70;99.90;;;;;;4985765;28;19913;-71
2023/10/06 01:35:18;;;;;;;;;;;13.80;99.90;;;;;;4989115;28;19917;-73
2023/10/06 01:37:44;;;;;;;;;;;13.80;99.90;;;;;;4990922;28;19949;-72
2023/10/06 01:40:44;;;;;;;;;;;13.80;99.90;;;;;;4974432;28;19925;-71
2023/10/06 01:43:12;;;;;;;;;;;13.80;99.90;;;;;;4983534;28;19984;-72
2023/10/06 01:45:43;;;;;;;;;;;13.80;99.90;;;;;;4989226;28;19917;-71
2023/10/06 01:50:35;;;;;;;;;;;13.80;99.90;;;;;;4988081;28;20003;-72
2023/10/06 01:53:06;;;;;;;;;;;13.80;99.90;;;;;;4987476;28;20397;-71
2023/10/06 01:55:37;;;;;;;;;;;13.90;99.90;;;;;;4986628;28;20293;-72
2023/10/06 01:58:04;;;;;;;;;;;13.80;99.90;;;;;;4987424;28;20313;-71
2023/10/06 02:00:34;;;;;;;;;;;13.90;99.90;;;;;;4965883;28;19921;-71
2023/10/06 02:03:03;;;;;;;;;;;13.90;99.90;;;;;;4967268;28;19975;-71
2023/10/06 02:05:29;;;;;;;;;;;13.90;99.90;;;;;;4970391;28;20004;-72
2023/10/06 02:08:00;;;;;;;;;;;13.80;99.90;;;;;;4990420;28;20008;-72
2023/10/06 02:10:26;;;;;;;;;;;13.80;99.90;;;;;;4986085;28;20361;-72
2023/10/06 02:12:52;;;;;;;;;;;13.80;99.90;;;;;;4973644;28;19959;-71
2023/10/06 02:15:18;;;;;;;;;;;13.80;99.90;;;;;;4989043;28;19958;-72
2023/10/06 02:17:44;;;;;;;;;;;13.80;99.90;;;;;;4992211;28;19917;-71
2023/10/06 02:22:55;;;;;;;;;;;13.70;99.90;;;;;;4992930;28;20410;-72
2023/10/06 02:25:20;;;;;;;;;;;13.60;99.90;;;;;;4993426;28;20537;-71
2023/10/06 02:27:47;;;;;;;;;;;13.60;99.90;;;;;;4987964;28;19914;-70
2023/10/06 02:30:19;;;;;;;;;;;13.60;99.90;;;;;;4995432;28;19949;-72
2023/10/06 02:32:45;;;;;;;;;;;13.60;99.90;;;;;;4974174;28;19913;-72
2023/10/06 02:35:12;;;;;;;;;;;13.50;99.90;;;;;;4994793;28;19913;-72
2023/10/06 02:37:38;;;;;;;;;;;13.60;99.90;;;;;;4994368;28;19910;-72
2023/10/06 02:40:11;;;;;;;;;;;13.60;99.90;;;;;;4995171;28;19924;-71
2023/10/06 02:42:51;;;;;;;;;;;13.60;99.90;;;;;;4985017;28;20265;-72
2023/10/06 02:45:20;;;;;;;;;;;13.50;99.90;;;;;;4989379;28;21151;-72
2023/10/06 02:47:46;;;;;;;;;;;13.50;99.90;;;;;;4993690;28;19921;-72
2023/10/06 02:50:19;;;;;;;;;;;13.60;99.90;;;;;;4994970;28;19913;-71
2023/10/06 02:52:46;;;;;;;;;;;13.50;99.90;;;;;;4991587;28;20416;-72
2023/10/06 02:55:19;;;;;;;;;;;13.50;99.90;;;;;;5000108;28;19999;-72
2023/10/06 02:57:50;;;;;;;;;;;13.50;99.90;;;;;;4994498;28;20052;-72
2023/10/06 03:03:03;;;;;;;;;;;13.50;99.90;;;;;;4998029;28;20414;-72
2023/10/06 03:05:32;;;;;;;;;;;13.50;99.90;;;;;;4976805;28;20419;-72
2023/10/06 03:08:00;;;;;;;;;;;13.50;99.90;;;;;;4988566;28;19909;-72
2023/10/06 03:10:27;;;;;;;;;;;13.40;99.90;;;;;;4995510;28;19937;-72
2023/10/06 03:12:53;;;;;;;;;;;13.40;99.90;;;;;;4993299;28;19968;-71
2023/10/06 03:15:33;;;;;;;;;;;13.40;99.90;;;;;;4992530;28;19963;-72
2023/10/06 03:17:59;;;;;;;;;;;13.30;99.90;;;;;;4991651;28;20036;-72
2023/10/06 03:20:41;;;;;;;;;;;13.30;99.90;;;;;;4994220;28;20244;-70
2023/10/06 03:23:24;;;;;;;;;;;13.30;99.90;;;;;;4989626;28;19917;-72
2023/10/06 03:25:53;;;;;;;;;;;13.30;99.90;;;;;;4992212;28;19945;-72
2023/10/06 03:28:20;;;;;;;;;;;13.30;99.90;;;;;;4974881;28;19921;-71
2023/10/06 03:30:49;;;;;;;;;;;13.20;99.90;;;;;;4988757;28;20369;-72
2023/10/06 03:33:16;;;;;;;;;;;13.20;99.90;;;;;;4990388;28;19944;-72
2023/10/06 03:35:45;;;;;;;;;;;13.20;99.90;;;;;;4974329;28;19992;-73
2023/10/06 03:40:46;;;;;;;;;;;13.20;99.90;;;;;;4989912;28;20399;-72
2023/10/06 03:43:15;;;;;;;;;;;13.10;99.90;;;;;;4990170;28;20066;-71
2023/10/06 03:45:43;;;;;;;;;;;13.10;99.90;;;;;;4988652;28;19921;-72
2023/10/06 03:48:08;;;;;;;;;;;13.10;99.90;;;;;;4992037;28;20273;-72
2023/10/06 03:50:38;;;;;;;;;;;13.10;99.90;;;;;;4972389;28;19920;-72
2023/10/06 03:53:04;;;;;;;;;;;13.10;99.90;;;;;;4987690;28;19910;-72
2023/10/06 03:55:30;;;;;;;;;;;13.00;99.90;;;;;;4988078;28;20423;-71
2023/10/06 03:57:55;;;;;;;;;;;13.00;99.90;;;;;;4991530;28;19917;-71
2023/10/06 04:00:26;;;;;;;;;;;13.00;99.90;;;;;;4992660;28;19922;-72
2023/10/06 04:02:52;;;;;;;;;;;13.00;99.90;;;;;;4991719;28;20000;-72
2023/10/06 04:05:18;;;;;;;;;;;13.00;99.90;;;;;;4990243;28;20008;-72
2023/10/06 04:07:45;;;;;;;;;;;13.00;99.90;;;;;;4986050;28;20056;-71
2023/10/06 04:10:14;;;;;;;;;;;13.00;99.90;;;;;;4992248;28;20380;-71
2023/10/06 04:12:40;;;;;;;;;;;13.00;99.90;;;;;;4986898;28;19940;-72
2023/10/06 04:15:06;;;;;;;;;;;13.10;99.90;;;;;;4985482;28;20377;-71
2023/10/06 04:17:32;;;;;;;;;;;13.00;99.90;;;;;;4991861;28;19920;-71
2023/10/06 04:19:57;;;;;;;;;;;12.90;99.90;;;;;;4991245;28;19914;-70
2023/10/06 04:22:23;;;;;;;;;;;12.90;99.90;;;;;;4994804;28;20501;-72
2023/10/06 04:24:48;;;;;;;;;;;12.80;99.90;;;;;;4986459;28;19980;-72
2023/10/06 04:27:14;;;;;;;;;;;12.80;99.90;;;;;;4990953;28;19921;-71
2023/10/06 04:29:40;;;;;;;;;;;12.70;99.90;;;;;;4969086;28;19913;-71
2023/10/06 04:32:08;;;;;;;;;;;12.70;99.90;;;;;;4990995;28;19917;-72
2023/10/06 04:34:36;;;;;;;;;;;12.60;99.90;;;;;;4991488;28;19963;-71
2023/10/06 04:37:03;;;;;;;;;;;12.60;99.90;;;;;;4990121;28;19909;-72
2023/10/06 04:39:28;;;;;;;;;;;12.60;99.90;;;;;;4986862;28;20377;-72
2023/10/06 04:41:59;;;;;;;;;;;12.50;99.90;;;;;;4993205;28;19918;-71
2023/10/06 04:44:24;;;;;;;;;;;12.50;99.90;;;;;;4988695;28;19925;-71
2023/10/06 04:46:50;;;;;;;;;;;12.50;99.90;;;;;;4987935;28;19972;-71
2023/10/06 04:49:15;;;;;;;;;;;12.40;99.90;;;;;;4994820;28;19917;-71
2023/10/06 04:51:41;;;;;;;;;;;12.40;99.90;;;;;;4988164;28;19918;-71
2023/10/06 04:54:08;;;;;;;;;;;12.40;99.90;;;;;;4989957;28;20283;-71
2023/10/06 04:56:33;;;;;;;;;;;12.40;99.90;;;;;;4989212;28;20269;-71
2023/10/06 04:58:59;;;;;;;;;;;12.40;99.90;;;;;;4988804;28;19968;-71
2023/10/06 05:01:28;;;;;;;;;;;12.40;99.90;;;;;;4993340;28;21292;-70
2023/10/06 05:03:54;;;;;;;;;;;12.40;99.90;;;;;;4986954;28;20015;-71
2023/10/06 05:06:21;;;;;;;;;;;12.40;99.90;;;;;;4985031;28;19984;-71
2023/10/06 05:08:47;;;;;;;;;;;12.40;99.90;;;;;;4989827;28;19914;-72
2023/10/06 05:11:17;;;;;;;;;;;12.40;99.90;;;;;;4987098;28;19918;-73
2023/10/06 05:13:43;;;;;;;;;;;12.40;99.90;;;;;;4986440;28;20448;-73
2023/10/06 05:16:11;;;;;;;;;;;12.40;99.90;;;;;;4990091;28;19928;-73
2023/10/06 05:18:38;;;;;;;;;;;12.40;99.90;;;;;;4992309;28;20004;-74
2023/10/06 05:21:08;;;;;;;;;;;12.40;99.90;;;;;;4991362;28;19925;-72
2023/10/06 05:23:35;;;;;;;;;;;12.50;99.90;;;;;;4981402;28;19960;-71
2023/10/06 05:26:07;;;;;;;;;;;12.80;99.90;;;;;;4970311;28;19925;-71
2023/10/06 05:28:34;;;;;;;;;;;13.30;99.90;;;;;;4987658;28;19909;-71
2023/10/06 05:30:59;;;;;;;;;;;13.80;99.90;;;;;;4981932;28;19928;-70
2023/10/06 05:33:25;;;;;;;;;;;14.40;99.90;;;;;;4993506;28;19921;-71
2023/10/06 05:35:51;;;;;;;;;;;14.60;99.90;;;;;;4987749;28;19960;-68
2023/10/06 05:38:17;;;;;;;;;;;14.90;99.90;;;;;;4989397;28;19919;-68
2023/10/06 05:40:44;;;;;;;;;;;15.50;99.90;;;;;;4992185;28;19967;-77
2023/10/06 05:43:11;;;;;;;;;;;16.20;99.90;;;;;;4974395;28;20322;-77
2023/10/06 05:45:39;;;;;;;;;;;16.80;99.90;;;;;;4976414;28;21366;-78
2023/10/06 05:48:09;;;;;;;;;;;17.30;99.90;;;;;;4990294;28;19918;-77
2023/10/06 05:50:35;;;;;;;;;;;17.80;99.90;;;;;;4971452;28;19925;-77
2023/10/06 05:53:04;;;;;;;;;;;18.40;99.90;;;;;;4975533;28;19914;-78
2023/10/06 05:55:37;;;;;;;;;;;18.90;99.20;;;;;;4977810;28;20442;-77
2023/10/06 05:58:08;;;;;;;;;;;19.30;98.00;;;;;;4995562;28;19913;-77
2023/10/06 06:00:43;;;;;;;;;;;19.80;97.50;;;;;;4994186;28;20416;-78
2023/10/06 06:03:13;;;;;;;;;;;20.30;96.10;;;;;;4995498;28;19913;-77
2023/10/06 06:05:39;;;;;;;;;;;20.80;94.80;;;;;;4993682;28;20389;-77
2023/10/06 06:08:11;;;;;;;;;;;21.30;93.70;;;;;;4997512;28;20528;-77
2023/10/06 06:10:36;;;;;;;;;;;21.80;92.90;;;;;;4996161;28;19909;-77
2023/10/06 06:13:02;;;;;;;;;;;22.30;91.90;;;;;;4993184;28;20548;-77
2023/10/06 06:15:28;;;;;;;;;;;22.70;91.20;;;;;;4997333;28;19909;-77
2023/10/06 06:17:54;;;;;;;;;;;23.00;90.00;;;;;;4998705;28;19948;-77
2023/10/06 06:20:22;;;;;;;;;;;23.30;89.00;;;;;;4981895;28;19914;-77
2023/10/06 06:22:55;;;;;;;;;;;23.40;87.60;;;;;;5001794;28;20699;-77
2023/10/06 06:25:21;;;;;;;;;;;23.30;87.50;;;;;;4979654;28;19914;-77
2023/10/06 06:27:47;;;;;;;;;;;23.60;87.00;;;;;;4978754;28;19945;-77
2023/10/06 06:30:18;;;;;;;;;;;24.30;84.70;;;;;;4992651;28;20383;-78
2023/10/06 06:32:50;;;;;;;;;;;24.90;83.10;;;;;;4976553;28;19914;-77
2023/10/06 06:35:19;;;;;;;;;;;25.20;81.20;;;;;;4996519;28;19918;-77
2023/10/06 06:37:52;;;;;;;;;;;25.70;79.30;;;;;;4973814;28;19945;-77
2023/10/06 06:40:19;;;;;;;;;;;25.90;78.00;;;;;;4998151;28;19928;-77
2023/10/06 06:42:48;;;;;;;;;;;26.40;77.40;;;;;;4973664;28;20951;-77
2023/10/06 06:45:13;;;;;;;;;;;26.90;74.80;;;;;;4976069;28;19925;-77
2023/10/06 06:47:41;;;;;;;;;;;27.10;74.00;;;;;;4998145;28;19941;-78
2023/10/06 06:50:08;;;;;;;;;;;27.50;72.30;;;;;;4982078;28;19909;-77
2023/10/06 06:52:34;;;;;;;;;;;28.10;71.30;;;;;;4993909;28;19913;-77
2023/10/06 06:54:59;;;;;;;;;;;28.90;69.40;;;;;;4996375;28;20357;-78
2023/10/06 06:57:26;;;;;;;;;;;29.20;67.90;;;;;;4978182;28;19913;-77
2023/10/06 06:59:52;;;;;;;;;;;29.60;66.40;;;;;;4996463;28;19913;-78
2023/10/06 07:02:18;;;;;;;;;;;30.40;64.90;;;;;;4977768;28;20009;-78
2023/10/06 07:04:44;;;;;;;;;;;30.20;64.10;;;;;;4995230;28;20357;-77
2023/10/06 07:07:10;;;;;;;;;;;30.40;63.30;;;;;;4997465;28;20308;-77
2023/10/06 07:09:35;;;;;;;;;;;30.70;62.40;;;;;;4993146;28;20051;-78
2023/10/06 07:12:01;;;;;;;;;;;30.60;62.60;;;;;;4996810;28;20304;-79
2023/10/06 07:14:29;;;;;;;;;;;30.60;62.30;;;;;;4997952;28;20361;-79
2023/10/06 07:16:56;;;;;;;;;;;31.00;61.60;;;;;;4979863;28;20014;-78
2023/10/06 07:19:24;;;;;;;;;;;31.60;60.80;;;;;;4996766;28;20066;-78
2023/10/06 07:21:50;;;;;;;;;;;31.60;60.50;;;;;;4996812;28;19997;-78
2023/10/06 07:24:18;;;;;;;;;;;32.20;59.70;;;;;;4995319;28;19921;-78
2023/10/06 07:26:44;;;;;;;;;;;32.50;58.80;;;;;;4995924;28;19913;-77
2023/10/06 07:29:10;;;;;;;;;;;31.80;58.80;;;;;;4973944;28;20368;-78
2023/10/06 07:31:36;;;;;;;;;;;31.70;59.60;;;;;;4994756;28;20586;-78
2023/10/06 07:34:03;;;;;;;;;;;32.60;58.10;;;;;;4994983;28;19914;-79
2023/10/06 07:36:29;;;;;;;;;;;32.00;57.30;;;;;;4979976;28;19968;-77
2023/10/06 07:38:55;;;;;;;;;;;30.70;58.60;;;;;;4997964;28;19953;-77
2023/10/06 07:41:23;;;;;;;;;;;30.50;60.30;;;;;;4997606;28;20733;-77
2023/10/06 07:43:49;;;;;;;;;;;32.00;58.70;;;;;;4976504;28;19945;-78
2023/10/06 07:46:16;;;;;;;;;;;33.20;57.10;;;;;;4976777;28;20361;-78
2023/10/06 07:48:45;;;;;;;;;;;33.90;56.10;;;;;;4975029;28;20430;-77
2023/10/06 07:51:13;;;;;;;;;;;34.00;55.10;;;;;;4997978;28;20387;-78
2023/10/06 07:53:39;;;;;;;;;;;33.70;54.40;;;;;;4990865;28;19914;-77
2023/10/06 07:56:08;;;;;;;;;;;33.30;55.20;;;;;;4977461;28;19971;-77
2023/10/06 07:58:35;;;;;;;;;;;34.00;54.60;;;;;;4974393;28;20008;-78
2023/10/06 08:01:02;;;;;;;;;;;34.10;54.40;;;;;;4974542;28;20067;-79
2023/10/06 08:03:28;;;;;;;;;;;34.20;53.20;;;;;;4979772;28;19924;-78
2023/10/06 08:05:55;;;;;;;;;;;34.50;52.80;;;;;;4976102;28;19945;-77
2023/10/06 08:08:21;;;;;;;;;;;34.10;52.80;;;;;;4973266;28;20195;-78
2023/10/06 08:10:49;;;;;;;;;;;34.10;52.70;;;;;;4977698;28;20339;-77
2023/10/06 08:13:15;;;;;;;;;;;34.30;52.90;;;;;;4990596;28;20735;-77
2023/10/06 08:15:44;;;;;;;;;;;32.40;53.30;;;;;;4978355;28;20000;-77
2023/10/06 08:18:12;;;;;;;;;;;31.90;54.10;;;;;;4996717;28;19916;-78
2023/10/06 08:20:40;;;;;;;;;;;29.50;55.50;;;;;;4980051;28;20391;-77
2023/10/06 08:23:11;;;;;;;;;;;28.30;58.60;;;;;;4975566;28;20087;-77
2023/10/06 08:25:37;;;;;;;;;;;29.30;57.80;;;;;;4973788;28;19910;-77
2023/10/06 08:28:05;;;;;;;;;;;30.00;57.10;;;;;;4979052;28;19924;-77
2023/10/06 08:30:32;;;;;;;;;;;31.40;55.00;;;;;;4997748;28;19916;-78
2023/10/06 08:32:59;;;;;;;;;;;32.40;53.80;;;;;;4981085;28;20599;-77
2023/10/06 08:35:26;;;;;;;;;;;33.20;53.70;;;;;;4992076;28;19924;-78
2023/10/06 08:37:52;;;;;;;;;;;32.00;53.90;;;;;;4994207;28;19909;-77
2023/10/06 08:40:19;;;;;;;;;;;31.90;53.40;;;;;;4996314;28;20012;-77
2023/10/06 08:42:56;;;;;;;;;;;31.90;54.90;;;;;;4971083;28;19922;-78
2023/10/06 08:45:25;;;;;;;;;;;32.80;54.20;;;;;;4993370;28;20412;-77
2023/10/06 08:47:58;;;;;;;;;;;34.10;52.50;;;;;;4990624;28;20371;-77
2023/10/06 08:50:29;;;;;;;;;;;35.30;52.10;;;;;;4976504;28;19924;-77
2023/10/06 08:52:55;;;;;;;;;;;36.40;51.40;;;;;;4994005;28;20622;-78
2023/10/06 08:55:21;;;;;;;;;;;36.80;50.50;;;;;;4974673;28;19918;-76
2023/10/06 08:57:48;;;;;;;;;;;36.80;50.20;;;;;;4975399;28;19921;-76
2023/10/06 09:00:14;;;;;;;;;;;37.20;49.20;;;;;;4989964;28;20422;-77
2023/10/06 09:02:41;;;;;;;;;;;37.40;49.50;;;;;;4993615;28;19917;-77
2023/10/06 09:05:10;;;;;;;;;;;37.60;49.40;;;;;;4994224;28;19910;-76
2023/10/06 09:07:35;;;;;;;;;;;37.30;48.80;;;;;;4993125;28;20320;-76
2023/10/06 09:10:17;;;;;;;;;;;38.10;48.70;;;;;;4976295;28;19916;-77
2023/10/06 09:12:43;;;;;;;;;;;39.00;48.30;;;;;;4974466;28;19927;-76
2023/10/06 09:15:15;;;;;;;;;;;39.30;47.40;;;;;;4994336;28;19909;-77
2023/10/06 09:17:40;;;;;;;;;;;38.10;47.20;;;;;;4973541;28;19914;-77
2023/10/06 09:20:07;;;;;;;;;;;38.20;47.70;;;;;;4977823;28;19924;-77
2023/10/06 09:22:46;;;;;;;;;;;38.60;48.10;;;;;;4993145;28;20080;-77
2023/10/06 09:25:12;;;;;;;;;;;36.70;47.80;;;;;;4994063;28;19981;-77
2023/10/06 09:27:38;;;;;;;;;;;36.10;48.60;;;;;;4978462;28;20384;-77
2023/10/06 09:30:11;;;;;;;;;;;36.80;49.10;;;;;;4980944;28;19909;-77
2023/10/06 09:32:37;;;;;;;;;;;37.90;48.50;;;;;;4976767;28;20420;-76
2023/10/06 09:35:19;;;;;;;;;;;38.80;47.60;;;;;;5000599;28;19909;-77
2023/10/06 09:37:44;;;;;;;;;;;36.60;47.70;;;;;;4996801;28;19914;-77
2023/10/06 09:40:19;;;;;;;;;;;37.10;48.30;;;;;;4998149;28;20131;-77
2023/10/06 09:42:49;;;;;;;;;;;37.80;47.30;;;;;;4980078;28;19921;-78
2023/10/06 09:45:21;;;;;;;;;;;38.40;47.50;;;;;;4981675;28;19925;-78
2023/10/06 09:47:50;;;;;;;;;;;39.50;46.60;;;;;;4996309;28;19909;-78
2023/10/06 09:50:20;;;;;;;;;;;39.90;46.30;;;;;;4981533;28;20442;-78
2023/10/06 09:52:47;;;;;;;;;;;39.10;45.40;;;;;;4997980;28;19917;-78
2023/10/06 09:55:17;;;;;;;;;;;38.90;45.80;;;;;;4980198;28;20320;-78
2023/10/06 09:57:44;;;;;;;;;;;39.50;45.20;;;;;;4997500;28;20423;-77
2023/10/06 10:00:16;;;;;;;;;;;40.00;45.40;;;;;;4980523;28;20456;-78
2023/10/06 10:02:45;;;;;;;;;;;40.30;45.00;;;;;;4980227;28;19913;-78
2023/10/06 10:05:18;;;;;;;;;;;40.50;44.30;;;;;;4994988;28;19914;-78
2023/10/06 10:07:45;;;;;;;;;;;39.60;44.20;;;;;;4995595;28;20004;-78
2023/10/06 10:10:11;;;;;;;;;;;39.60;44.90;;;;;;4999937;28;19913;-77
2023/10/06 10:12:48;;;;;;;;;;;37.10;45.40;;;;;;4993766;28;20381;-77
2023/10/06 10:15:19;;;;;;;;;;;32.80;48.50;;;;;;4976093;28;19940;-77
2023/10/06 10:17:45;;;;;;;;;;;31.10;51.00;;;;;;4995245;28;20333;-77
2023/10/06 10:20:12;;;;;;;;;;;33.10;50.70;;;;;;4999007;28;19940;-77
2023/10/06 10:22:40;;;;;;;;;;;32.30;50.00;;;;;;4973965;28;20000;-79
2023/10/06 10:25:08;;;;;;;;;;;32.80;50.50;;;;;;5001332;28;20293;-78
2023/10/06 10:27:37;;;;;;;;;;;35.00;49.50;;;;;;4996531;28;19921;-78
2023/10/06 10:30:09;;;;;;;;;;;36.10;47.80;;;;;;4996304;28;19922;-79
2023/10/06 10:32:41;;;;;;;;;;;36.90;47.20;;;;;;4994832;28;19917;-78
2023/10/06 10:35:12;;;;;;;;;;;35.70;47.80;;;;;;4995430;28;20396;-77
2023/10/06 10:37:55;;;;;;;;;;;36.90;46.90;;;;;;4979948;28;20403;-78
2023/10/06 10:40:24;;;;;;;;;;;38.50;45.60;;;;;;4998018;28;19924;-78
2023/10/06 10:42:55;;;;;;;;;;;39.30;44.50;;;;;;4990890;28;19948;-78
2023/10/06 10:45:31;;;;;;;;;;;38.30;44.80;;;;;;4982048;28;19953;-80
2023/10/06 10:47:58;;;;;;;;;;;38.40;45.00;;;;;;4975619;28;19917;-80
2023/10/06 10:50:44;;;;;;;;;;;36.60;45.40;;;;;;4997954;28;19948;-80
2023/10/06 10:53:11;;;;;;;;;;;33.60;48.20;;;;;;4995831;28;19936;-78
2023/10/06 10:55:37;;;;;;;;;;;29.90;50.10;;;;;;4993754;28;19913;-78
2023/10/06 10:58:03;;;;;;;;;;;27.10;53.30;;;;;;4993922;28;20269;-78
2023/10/06 11:00:29;;;;;;;;;;;25.40;56.40;;;;;;4976714;28;19918;-78
2023/10/06 11:02:57;;;;;;;;;;;25.40;54.00;;;;;;4994276;28;19925;-78
2023/10/06 11:05:23;;;;;;;;;;;24.80;55.10;;;;;;4992584;28;20647;-78
2023/10/06 11:07:55;;;;;;;;;;;24.70;56.50;;;;;;4994800;28;19914;-78
2023/10/06 11:10:23;;;;;;;;;;;24.60;56.00;;;;;;4982766;28;19931;-78
2023/10/06 11:12:50;;;;;;;;;;;24.00;57.90;;;;;;4976844;28;19917;-78
2023/10/06 11:15:26;;;;;;;;;;;23.70;58.60;;;;;;4992297;28;19918;-79
2023/10/06 11:17:55;;;;;;;;;;;23.90;59.10;;;;;;4996257;28;19944;-79
2023/10/06 11:20:24;;;;;;;;;;;24.40;58.60;;;;;;4980309;28;19917;-78
2023/10/06 11:22:52;;;;;;;;;;;24.80;57.70;;;;;;4972950;28;19913;-78
2023/10/06 11:25:18;;;;;;;;;;;24.50;58.10;;;;;;4980144;28;19910;-78
2023/10/06 11:27:55;;;;;;;;;;;24.70;57.50;;;;;;4992463;28;20767;-79
2023/10/06 11:30:21;;;;;;;;;;;24.70;57.50;;;;;;4974752;28;19925;-78
2023/10/06 11:32:48;;;;;;;;;;;24.50;57.30;;;;;;4977075;28;19914;-78
2023/10/06 11:35:15;;;;;;;;;;;24.60;57.10;;;;;;4975242;28;19924;-78
2023/10/06 11:37:41;;;;;;;;;;;24.70;56.60;;;;;;4974833;28;19924;-78
2023/10/06 11:40:07;;;;;;;;;;;24.90;55.30;;;;;;4974429;28;19924;-78
2023/10/06 11:42:35;;;;;;;;;;;24.20;56.50;;;;;;4976923;28;19971;-78
2023/10/06 11:45:06;;;;;;;;;;;24.30;56.70;;;;;;4975972;28;19933;-78
2023/10/06 11:47:34;;;;;;;;;;;24.50;56.50;;;;;;4976309;28;19945;-78
2023/10/06 11:50:03;;;;;;;;;;;23.90;57.20;;;;;;4995251;28;20381;-78
2023/10/06 11:52:29;;;;;;;;;;;23.90;58.00;;;;;;4973848;28;19913;-78
2023/10/06 11:54:57;;;;;;;;;;;24.30;57.50;;;;;;4976122;28;20038;-78
2023/10/06 11:57:41;;;;;;;;;;;24.50;56.40;;;;;;4989753;28;19920;-78
2023/10/06 12:00:10;;;;;;;;;;;24.70;56.60;;;;;;4986763;28;19948;-79
2023/10/06 12:02:46;;;;;;;;;;;24.90;56.00;;;;;;4995113;28;20324;-78
2023/10/06 12:05:13;;;;;;;;;;;24.90;55.90;;;;;;4976545;28;20267;-79
2023/10/06 12:07:41;;;;;;;;;;;24.40;56.60;;;;;;4977465;28;19914;-78
2023/10/06 12:10:08;;;;;;;;;;;24.20;57.60;;;;;;4977565;28;19979;-79
2023/10/06 12:12:34;;;;;;;;;;;24.30;56.50;;;;;;4977127;28;19921;-78
2023/10/06 12:14:59;;;;;;;;;;;24.40;56.70;;;;;;4976766;28;19932;-78
2023/10/06 12:17:27;;;;;;;;;;;24.50;56.20;;;;;;4978706;28;20494;-78
2023/10/06 12:19:52;;;;;;;;;;;24.50;55.80;;;;;;4977399;28;20040;-78
2023/10/06 12:22:20;;;;;;;;;;;24.40;55.90;;;;;;4996708;28;20004;-78
2023/10/06 12:24:45;;;;;;;;;;;24.40;55.90;;;;;;4991744;28;20005;-78
2023/10/06 12:27:11;;;;;;;;;;;24.10;56.70;;;;;;4990751;28;19975;-78
2023/10/06 12:29:38;;;;;;;;;;;23.90;56.60;;;;;;4995165;28;20531;-78
2023/10/06 12:32:04;;;;;;;;;;;23.80;57.10;;;;;;4998715;28;19968;-78
2023/10/06 12:34:31;;;;;;;;;;;23.80;57.20;;;;;;4992726;28;20312;-78
2023/10/06 12:37:01;;;;;;;;;;;23.70;57.50;;;;;;4990221;28;19909;-78
2023/10/06 12:39:34;;;;;;;;;;;23.80;56.90;;;;;;4973609;28;19909;-78
2023/10/06 12:42:03;;;;;;;;;;;23.80;56.90;;;;;;4994548;28;19921;-78
2023/10/06 12:44:29;;;;;;;;;;;23.60;56.50;;;;;;4975947;28;19924;-78
2023/10/06 12:46:55;;;;;;;;;;;23.30;57.70;;;;;;4973471;28;19918;-78
2023/10/06 12:49:23;;;;;;;;;;;23.50;57.40;;;;;;4993497;28;19921;-78
2023/10/06 12:51:50;;;;;;;;;;;23.70;57.10;;;;;;4989531;28;19914;-78
2023/10/06 12:54:16;;;;;;;;;;;23.80;57.00;;;;;;4985332;28;19914;-78
2023/10/06 12:56:46;;;;;;;;;;;23.80;56.70;;;;;;4991091;28;20529;-78
2023/10/06 12:59:12;;;;;;;;;;;23.90;56.50;;;;;;4973684;28;19913;-78
2023/10/06 13:01:38;;;;;;;;;;;23.80;56.60;;;;;;4987313;28;20269;-78
2023/10/06 13:04:05;;;;;;;;;;;23.80;57.00;;;;;;4993259;28;19988;-78
2023/10/06 13:06:33;;;;;;;;;;;23.70;56.80;;;;;;4984229;28;19913;-78
2023/10/06 13:09:03;;;;;;;;;;;23.70;57.10;;;;;;4991610;28;19913;-78
2023/10/06 13:11:29;;;;;;;;;;;23.70;57.30;;;;;;4974242;28;19917;-78
2023/10/06 13:13:54;;;;;;;;;;;23.80;56.60;;;;;;4975345;28;19984;-78
2023/10/06 13:16:20;;;;;;;;;;;23.60;57.20;;;;;;4974568;28;20151;-78
2023/10/06 13:18:46;;;;;;;;;;;23.60;57.00;;;;;;4995340;28;19921;-78
2023/10/06 13:21:11;;;;;;;;;;;23.60;57.50;;;;;;4973740;28;20532;-78
2023/10/06 13:23:38;;;;;;;;;;;23.70;56.70;;;;;;4975339;28;20384;-78
2023/10/06 13:26:03;;;;;;;;;;;23.70;57.10;;;;;;4975984;28;19932;-78
2023/10/06 13:28:30;;;;;;;;;;;23.70;57.30;;;;;;4988130;28;20418;-78
2023/10/06 13:30:56;;;;;;;;;;;23.80;57.00;;;;;;4982464;28;19917;-78
2023/10/06 13:33:22;;;;;;;;;;;23.70;57.00;;;;;;4974898;28;19909;-78
2023/10/06 13:35:47;;;;;;;;;;;23.70;57.00;;;;;;4991297;28;20632;-79
2023/10/06 13:38:16;;;;;;;;;;;23.70;57.30;;;;;;4988944;28;19921;-79
2023/10/06 13:40:44;;;;;;;;;;;23.60;57.10;;;;;;4973169;28;20012;-78
2023/10/06 13:43:11;;;;;;;;;;;23.50;57.50;;;;;;4992927;28;19916;-78
2023/10/06 13:45:39;;;;;;;;;;;23.50;57.00;;;;;;4973146;28;19948;-79
2023/10/06 13:48:05;;;;;;;;;;;23.50;57.40;;;;;;4978913;28;19963;-78
2023/10/06 13:50:31;;;;;;;;;;;23.50;56.50;;;;;;4979827;28;19952;-78
2023/10/06 13:52:57;;;;;;;;;;;23.50;57.10;;;;;;4992645;28;20535;-78
2023/10/06 13:55:27;;;;;;;;;;;23.50;57.50;;;;;;4989973;28;20350;-78
2023/10/06 13:57:54;;;;;;;;;;;23.50;57.00;;;;;;4994847;28;19922;-78
2023/10/06 14:00:30;;;;;;;;;;;23.40;56.00;;;;;;4975488;28;20623;-78
2023/10/06 14:03:00;;;;;;;;;;;23.30;56.40;;;;;;4990310;28;21470;-78
2023/10/06 14:05:30;;;;;;;;;;;23.30;56.40;;;;;;4971638;28;19936;-78
2023/10/06 14:07:58;;;;;;;;;;;23.30;56.20;;;;;;4990740;28;19917;-72
2023/10/06 14:10:25;;;;;;;;;;;23.30;56.60;;;;;;4990978;28;21397;-73
2023/10/06 14:13:00;;;;;;;;;;;23.30;56.10;;;;;;4987544;28;20534;-72
2023/10/06 14:18:14;;;;;;;;;;;23.10;57.50;;;;;;4989687;28;19967;-68
2023/10/06 14:20:42;;;;;;;;;;;23.20;57.10;;;;;;4995202;28;19924;-69
2023/10/06 14:23:11;;;;;;;;;;;23.20;56.30;;;;;;4991123;28;20451;-68
2023/10/06 14:25:38;;;;;;;;;;;23.20;57.60;;;;;;4991734;28;19914;-67
2023/10/06 14:28:07;;;;;;;;;;;23.40;56.00;;;;;;4991339;28;19913;-68
2023/10/06 14:30:34;;;;;;;;;;;23.30;56.40;;;;;;4987720;28;19968;-68
2023/10/06 14:33:17;;;;;;;;;;;23.20;55.60;;;;;;4993099;28;20384;-69
2023/10/06 14:35:45;;;;;;;;;;;23.10;56.10;;;;;;4989853;28;19914;-69
2023/10/06 14:45:57;;;;;;;;;;;23.10;57.00;;;;;;4989183;28;19913;-69